Time;durP1;ratioP1;P1;durP2;ratioP2;P2;SDS_P1;SDS_P2;PMS_P1;PMS_P2;Temp;Humidity;BMP_temperature;BMP_pressure;BME280_temperature;BME280_humidity;BME280_pressure;Samples;Min_cycle;Max_cycle;Signal;HPM_P1;HPM_P2
2022/04/21 00:00:39;;;;;;;144.68;34.15;;;;;;;5.64;100.00;98889.25;8524733;27;20038;-73
2022/04/21 00:04:40;;;;;;;212.65;37.17;;;;;;;5.68;100.00;98887.63;8518363;27;20041;-73
2022/04/21 00:08:41;;;;;;;231.85;35.15;;;;;;;5.67;100.00;98891.38;8521966;27;20519;-73
2022/04/21 00:12:43;;;;;;;187.75;38.08;;;;;;;5.72;100.00;98888.66;8513300;27;20135;-73
2022/04/21 00:16:43;;;;;;;183.35;39.25;;;;;;;5.67;100.00;98896.72;8528267;27;20536;-73
2022/04/21 00:20:47;;;;;;;182.77;36.85;;;;;;;5.66;100.00;98889.78;8498254;27;20046;-73
2022/04/21 00:24:47;;;;;;;216.27;35.30;;;;;;;5.67;100.00;98896.72;8524237;27;20043;-73
2022/04/21 00:28:48;;;;;;;211.40;36.75;;;;;;;5.64;100.00;98881.22;8526138;27;20562;-73
2022/04/21 00:32:49;;;;;;;187.77;33.35;;;;;;;5.60;100.00;98891.72;8513025;27;20150;-73
2022/04/21 00:36:51;;;;;;;206.32;35.85;;;;;;;5.61;100.00;98882.56;8428768;27;20055;-73
2022/04/21 00:40:51;;;;;;;137.68;33.00;;;;;;;5.60;100.00;98881.00;8525034;27;20445;-74
2022/04/21 00:44:53;;;;;;;189.25;31.65;;;;;;;5.59;100.00;98873.25;8454705;27;20405;-73
2022/04/21 00:48:57;;;;;;;191.02;30.42;;;;;;;5.62;100.00;98875.34;8534848;27;20156;-73
2022/04/21 00:52:58;;;;;;;154.52;32.10;;;;;;;5.64;100.00;98886.59;8518266;27;20040;-73
2022/04/21 00:57:00;;;;;;;158.88;31.90;;;;;;;5.64;100.00;98886.59;8525837;27;20046;-72
2022/04/21 01:01:01;;;;;;;138.05;30.15;;;;;;;5.64;100.00;98883.91;8521152;27;20053;-73
2022/04/21 01:05:03;;;;;;;125.15;31.80;;;;;;;5.66;100.00;98889.78;8536993;27;20050;-73
2022/04/21 01:09:04;;;;;;;130.43;31.58;;;;;;;5.70;100.00;98880.09;8545082;27;20038;-73
2022/04/21 01:13:07;;;;;;;146.77;29.70;;;;;;;5.69;100.00;98873.16;8529004;27;20123;-73
2022/04/21 01:17:09;;;;;;;170.68;30.98;;;;;;;5.70;100.00;98874.75;8522880;27;20054;-73
2022/04/21 01:21:10;;;;;;;218.43;29.80;;;;;;;5.68;100.00;98871.53;8477304;27;20081;-73
2022/04/21 01:25:11;;;;;;;173.65;29.80;;;;;;;5.68;100.00;98872.34;8544424;27;20563;-73
2022/04/21 01:29:12;;;;;;;134.02;30.50;;;;;;;5.68;100.00;98882.25;8513586;27;20046;-73
2022/04/21 01:33:13;;;;;;;166.43;31.27;;;;;;;5.69;100.00;98878.50;8548001;27;20049;-73
2022/04/21 01:41:34;;;;;;;168.95;30.70;;;;;;;5.65;100.00;98872.13;8521269;27;20043;-73
2022/04/21 01:45:35;;;;;;;153.35;32.15;;;;;;;5.66;100.00;98884.44;8509124;27;20346;-73
2022/04/21 01:49:36;;;;;;;194.30;32.40;;;;;;;5.66;100.00;98876.41;8484585;27;20047;-73
2022/04/21 01:53:37;;;;;;;163.63;31.98;;;;;;;5.65;100.00;98866.75;8533207;27;20458;-72
2022/04/21 01:57:38;;;;;;;152.85;32.35;;;;;;;5.68;100.00;98866.19;8478686;27;20054;-73
2022/04/21 02:01:39;;;;;;;147.57;31.95;;;;;;;5.69;100.00;98867.78;8527896;27;20043;-73
2022/04/21 02:05:40;;;;;;;180.15;30.00;;;;;;;5.68;100.00;98871.53;8541747;27;20488;-73
2022/04/21 02:09:41;;;;;;;166.35;30.67;;;;;;;5.67;100.00;98859.22;8483157;27;20074;-73
2022/04/21 02:13:43;;;;;;;140.43;30.45;;;;;;;5.69;100.00;98878.50;8529224;27;20184;-73
2022/04/21 02:17:45;;;;;;;234.30;30.80;;;;;;;5.67;100.00;98875.28;8515646;27;20496;-72
2022/04/21 02:21:46;;;;;;;213.48;30.65;;;;;;;5.69;100.00;98873.16;8515186;27;20043;-73
2022/04/21 02:25:49;;;;;;;180.45;30.27;;;;;;;5.73;100.00;98874.16;8507035;27;20081;-73
2022/04/21 02:29:52;;;;;;;126.28;30.13;;;;;;;5.72;100.00;98873.38;8459338;27;20485;-72
2022/04/21 02:33:53;;;;;;;143.27;28.05;;;;;;;5.75;100.00;98863.97;8515657;27;20043;-73
2022/04/21 02:37:54;;;;;;;154.98;29.80;;;;;;;5.71;100.00;98854.91;8524859;27;20458;-73
2022/04/21 02:41:55;;;;;;;191.95;29.65;;;;;;;5.70;100.00;98864.03;8520801;27;20174;-73
2022/04/21 02:45:56;;;;;;;167.65;29.63;;;;;;;5.74;100.00;98865.06;8526028;27;20134;-73
2022/04/21 02:49:57;;;;;;;181.52;30.60;;;;;;;5.78;100.00;98861.53;8508706;27;20476;-73
2022/04/21 02:58:20;;;;;;;;;;;;;;;5.77;100.00;98865.28;8514998;27;20047;-73
2022/04/21 03:02:22;;;;;;;103.07;26.65;;;;;;;5.77;100.00;98864.47;8523433;27;19930;-73
2022/04/21 03:06:23;;;;;;;132.82;28.30;;;;;;;5.77;100.00;98867.16;8489070;27;20046;-73
2022/04/21 03:10:24;;;;;;;127.93;28.92;;;;;;;5.75;100.00;98872.03;8494994;27;20047;-73
2022/04/21 03:14:25;;;;;;;100.78;27.23;;;;;;;5.76;100.00;98878.97;8511032;27;20395;-73
2022/04/21 03:18:26;;;;;;;84.38;26.90;;;;;;;5.77;100.00;98880.56;8506868;27;20062;-73
2022/04/21 03:26:51;;;;;;;85.00;26.45;;;;;;;5.78;100.00;98887.53;8514347;27;20047;-73
2022/04/21 03:30:51;;;;;;;63.28;26.40;;;;;;;5.77;100.00;98885.91;8511903;27;20039;-73
2022/04/21 03:34:54;;;;;;;59.97;25.90;;;;;;;5.77;100.00;98886.72;8516824;27;20437;-74
2022/04/21 03:38:55;;;;;;;53.88;23.40;;;;;;;5.84;100.00;98891.75;8526107;27;20134;-73
2022/04/21 03:42:56;;;;;;;84.00;29.15;;;;;;;5.80;100.00;98891.53;8512193;27;20043;-73
2022/04/21 03:46:58;;;;;;;63.80;26.63;;;;;;;5.76;100.00;98878.97;8494012;27;20096;-73
2022/04/21 03:50:59;;;;;;;91.55;28.42;;;;;;;5.80;100.00;98891.53;8464034;27;20054;-73
2022/04/21 03:55:00;;;;;;;70.03;26.33;;;;;;;5.83;100.00;98884.78;8503683;27;20082;-73
2022/04/21 03:59:01;;;;;;;64.63;26.70;;;;;;;5.79;100.00;98894.47;8511417;27;20480;-73
2022/04/21 04:03:02;;;;;;;90.32;28.02;;;;;;;5.83;100.00;98895.50;8477633;27;20120;-73
2022/04/21 04:11:23;;;;;;;60.78;23.80;;;;;;;5.84;100.00;98891.75;8533692;27;20050;-73
2022/04/21 04:15:24;;;;;;;56.40;23.00;;;;;;;5.85;100.00;98898.72;8522014;27;20095;-73
2022/04/21 04:19:25;;;;;;;64.60;24.70;;;;;;;5.91;100.00;98892.25;8507692;27;20047;-73
2022/04/21 04:23:26;;;;;;;78.07;25.20;;;;;;;5.90;100.00;98896.03;8535847;27;20051;-73
2022/04/21 04:27:28;;;;;;;65.25;24.58;;;;;;;5.87;100.00;98885.84;8511264;27;20076;-73
2022/04/21 04:31:29;;;;;;;77.00;25.67;;;;;;;5.89;100.00;98883.69;8533991;27;20412;-73
2022/04/21 04:35:30;;;;;;;65.03;25.20;;;;;;;5.94;100.00;98887.13;8533773;27;20480;-73
2022/04/21 04:39:31;;;;;;;62.95;24.10;;;;;;;6.00;100.00;98890.56;8496904;27;20047;-73
2022/04/21 04:43:32;;;;;;;51.30;22.17;;;;;;;6.06;100.00;98884.06;8499088;27;20051;-73
2022/04/21 04:47:33;;;;;;;52.28;21.77;;;;;;;6.12;100.00;98882.94;8499152;27;20047;-73
2022/04/21 04:51:37;;;;;;;51.10;21.95;;;;;;;6.17;100.00;98885.56;8498896;27;20051;-73
2022/04/21 04:55:38;;;;;;;56.03;26.65;;;;;;;6.23;100.00;98887.09;8498781;27;20043;-73
2022/04/21 04:59:39;;;;;;;59.38;27.02;;;;;;;6.25;100.00;98892.97;8495863;27;20070;-73
2022/04/21 05:03:40;;;;;;;83.90;34.03;;;;;;;6.17;100.00;98884.75;8498923;27;20049;-73
2022/04/21 05:07:41;;;;;;;131.55;49.63;;;;;;;6.17;100.00;98890.91;8498539;27;20492;-73
2022/04/21 05:11:44;;;;;;;215.93;69.35;;;;;;;6.10;100.00;98885.09;8498367;27;20134;-73
2022/04/21 05:15:45;;;;;;;79.18;33.42;;;;;;;6.14;100.00;98891.47;8461889;27;20480;-74
2022/04/21 05:19:46;;;;;;;113.80;42.15;;;;;;;6.13;100.00;98895.25;8498238;27;20047;-73
2022/04/21 05:23:47;;;;;;;115.82;42.63;;;;;;;6.20;100.00;98890.34;8497940;27;20139;-73
2022/04/21 05:27:49;;;;;;;85.43;33.88;;;;;;;6.32;100.00;98897.97;8461822;27;20054;-73
2022/04/21 05:31:54;;;;;;;76.10;27.77;;;;;;;6.39;100.00;98908.38;8497854;27;20131;-73
2022/04/21 05:35:57;;;;;;;64.47;26.15;;;;;;;6.33;100.00;98905.75;8461352;27;20493;-73
2022/04/21 05:39:58;;;;;;;60.42;24.40;;;;;;;6.38;100.00;98898.72;8444347;28;20052;-73
2022/04/21 05:44:00;;;;;;;58.85;25.40;;;;;;;6.48;100.00;98917.38;8444093;28;20105;-73
2022/04/21 05:48:02;;;;;;;57.17;21.95;;;;;;;6.49;100.00;98916.31;8463528;28;20043;-73
2022/04/21 05:52:05;;;;;;;80.03;32.17;;;;;;;6.52;100.00;98907.66;8427375;28;20055;-73
2022/04/21 05:56:07;;;;;;;64.13;28.55;;;;;;;6.50;100.00;98904.50;8461704;28;20127;-73
2022/04/21 06:00:09;;;;;;;61.25;29.52;;;;;;;6.51;100.00;98906.88;8463248;28;20563;-73
2022/04/21 06:04:10;;;;;;;61.70;27.05;;;;;;;6.58;100.00;98906.53;8461664;28;20052;-73
2022/04/21 06:08:11;;;;;;;47.55;21.98;;;;;;;6.72;100.00;98912.78;8462699;28;20421;-73
2022/04/21 06:12:13;;;;;;;60.85;27.13;;;;;;;6.80;100.00;98914.84;8461582;28;20071;-73
2022/04/21 06:16:14;;;;;;;63.65;26.58;;;;;;;6.85;100.00;98917.47;8462618;27;20044;-73
2022/04/21 06:20:15;;;;;;;43.97;20.63;;;;;;;6.95;100.00;98925.38;8462179;28;20138;-73
2022/04/21 06:24:16;;;;;;;44.42;21.45;;;;;;;7.03;100.00;98924.72;8461854;28;20065;-73
2022/04/21 06:28:17;;;;;;;38.72;20.20;;;;;;;7.13;99.99;98921.91;8461934;28;20548;-73
2022/04/21 06:32:19;;;;;;;38.17;18.73;;;;;;;7.13;99.89;98924.59;8425596;28;20043;-73
2022/04/21 06:36:20;;;;;;;45.05;21.52;;;;;;;7.13;100.00;98927.28;8461842;28;20052;-73
2022/04/21 06:40:21;;;;;;;53.28;24.63;;;;;;;7.05;100.00;98922.53;8484279;27;20057;-73
2022/04/21 06:48:42;;;;;;;54.03;24.83;;;;;;;6.93;100.00;98932.91;8495830;27;20043;-73
2022/04/21 06:52:43;;;;;;;56.72;23.75;;;;;;;6.98;100.00;98938.19;8495397;27;20050;-73
2022/04/21 06:56:48;;;;;;;55.13;24.40;;;;;;;6.87;100.00;98926.03;8495303;27;20397;-73
2022/04/21 07:00:49;;;;;;;57.78;26.80;;;;;;;6.95;100.00;98944.16;8495181;27;20051;-73
2022/04/21 07:04:51;;;;;;;60.33;26.23;;;;;;;7.11;100.00;98948.25;8492273;27;20053;-73
2022/04/21 07:08:52;;;;;;;56.50;25.02;;;;;;;7.11;100.00;98948.25;8494612;27;20043;-73
2022/04/21 07:12:54;;;;;;;49.50;24.60;;;;;;;7.25;100.00;98953.69;8494710;27;20118;-73
2022/04/21 07:16:58;;;;;;;47.47;23.23;;;;;;;7.27;100.00;98950.72;8494685;27;20257;-73
2022/04/21 07:21:03;;;;;;;45.95;23.08;;;;;;;7.63;100.00;98949.09;8494201;27;20055;-73
2022/04/21 07:25:07;;;;;;;47.17;22.35;;;;;;;7.80;98.84;98954.72;8492841;27;20104;-73
2022/04/21 07:29:08;;;;;;;54.70;25.42;;;;;;;7.73;98.74;98948.13;8492905;27;20047;-73
2022/04/21 07:33:09;;;;;;;52.03;25.85;;;;;;;7.53;99.33;98954.63;8494072;27;20480;-74
2022/04/21 07:37:10;;;;;;;62.40;27.95;;;;;;;7.57;99.42;98964.50;8492559;27;20047;-74
2022/04/21 07:41:11;;;;;;;55.15;25.80;;;;;;;7.79;98.75;98963.88;8474506;28;20043;-73
2022/04/21 07:45:12;;;;;;;63.28;29.33;;;;;;;7.85;98.06;98968.09;8494139;27;20086;-74
2022/04/21 07:53:32;;;;;;;59.45;27.33;;;;;;;7.84;97.65;98966.50;8493902;27;20252;-73
2022/04/21 07:57:33;;;;;;;61.88;28.63;;;;;;;7.98;97.29;98975.38;8474711;28;20436;-74
2022/04/21 08:01:37;;;;;;;55.72;25.58;;;;;;;8.03;96.54;98975.31;8493983;27;20046;-73
2022/04/21 08:05:38;;;;;;;53.35;26.83;;;;;;;8.07;95.61;98965.56;8475009;28;20394;-74
2022/04/21 08:09:40;;;;;;;50.92;26.13;;;;;;;8.20;95.23;98968.56;8493895;28;20071;-74
2022/04/21 08:13:41;;;;;;;50.35;25.38;;;;;;;8.33;94.46;98978.59;8493687;27;20055;-74
2022/04/21 08:17:42;;;;;;;50.88;26.27;;;;;;;8.39;93.70;98988.19;8493555;27;20546;-74
2022/04/21 08:21:43;;;;;;;52.50;26.60;;;;;;;8.25;94.00;98981.97;8493807;27;20134;-74
2022/04/21 08:34:24;;;;;;;50.38;26.83;;;;;;;8.37;92.88;98990.34;8478321;27;20051;-74
2022/04/21 08:38:27;;;;;;;50.58;26.33;;;;;;;8.46;91.66;98999.34;8507102;27;20492;-73
2022/04/21 08:42:30;;;;;;;52.92;26.20;;;;;;;8.55;91.29;99000.25;8446702;27;20053;-74
2022/04/21 08:46:32;;;;;;;52.00;27.85;;;;;;;8.50;92.08;99000.34;8533560;27;20107;-74
2022/04/21 08:50:33;;;;;;;52.90;26.90;;;;;;;8.44;92.62;99006.91;8533528;27;20431;-74
2022/04/21 08:54:35;;;;;;;52.72;24.40;;;;;;;8.42;93.43;99009.09;8533506;27;20046;-74
2022/04/21 08:58:38;;;;;;;46.00;24.45;;;;;;;8.38;93.38;99013.47;8533232;27;20277;-74
2022/04/21 09:02:42;;;;;;;55.03;29.55;;;;;;;8.27;94.52;99012.84;8413159;27;20072;-74
2022/04/21 09:06:43;;;;;;;51.85;26.48;;;;;;;8.28;94.26;99008.25;8532872;27;20043;-74
2022/04/21 09:10:44;;;;;;;45.78;24.15;;;;;;;8.20;94.50;99006.22;8533034;27;20053;-74
2022/04/21 09:14:48;;;;;;;55.75;30.13;;;;;;;8.10;94.21;99006.41;8479009;27;20090;-73
2022/04/21 09:18:49;;;;;;;50.78;26.98;;;;;;;7.90;95.46;99008.34;8532511;27;20125;-74
2022/04/21 09:22:55;;;;;;;47.65;24.52;;;;;;;7.92;95.07;99011.53;8532516;27;20050;-74
2022/04/21 09:26:56;;;;;;;50.17;25.85;;;;;;;8.01;94.98;99009.78;8532582;27;20034;-74
2022/04/21 09:31:00;;;;;;;45.60;25.45;;;;;;;8.06;94.64;99007.00;8532225;27;20416;-74
2022/04/21 09:35:03;;;;;;;60.47;29.02;;;;;;;8.10;94.40;99011.78;8478472;27;20051;-74
2022/04/21 09:39:05;;;;;;;41.47;23.02;;;;;;;8.00;95.25;99018.94;8531850;27;20088;-74
2022/04/21 09:43:06;;;;;;;43.65;23.45;;;;;;;8.05;94.88;99021.53;8531628;27;20047;-74
2022/04/21 09:47:07;;;;;;;46.08;22.95;;;;;;;8.16;94.04;99015.97;8531616;27;20039;-74
2022/04/21 09:51:18;;;;;;;42.53;23.33;;;;;;;8.30;93.40;99022.25;8531692;27;20046;-74
2022/04/21 09:55:27;;;;;;;42.35;23.65;;;;;;;8.39;92.79;99015.88;8531076;27;20058;-74
2022/04/21 09:59:28;;;;;;;43.30;23.02;;;;;;;8.47;92.64;99011.69;8531605;27;20078;-75
2022/04/21 10:03:33;;;;;;;41.92;22.63;;;;;;;8.68;92.20;99023.69;8531151;27;20111;-75
2022/04/21 10:07:34;;;;;;;40.70;22.65;;;;;;;8.93;91.02;99018.94;8478630;27;20046;-74
2022/04/21 10:11:41;;;;;;;39.45;21.67;;;;;;;8.96;90.69;99023.69;8510574;27;20449;-74
2022/04/21 10:15:43;;;;;;;40.17;22.88;;;;;;;9.02;90.53;99007.16;8530831;27;20049;-74
2022/04/21 10:19:51;;;;;;;47.20;24.67;;;;;;;8.90;90.71;99015.72;8512518;27;20035;-75
2022/04/21 10:23:53;;;;;;;44.97;25.00;;;;;;;8.71;91.22;99012.34;8530220;27;20066;-74
2022/04/21 10:27:54;;;;;;;47.40;24.58;;;;;;;8.72;90.79;99008.56;8511868;27;20053;-74
2022/04/21 10:31:57;;;;;;;53.15;27.58;;;;;;;8.81;90.16;99012.13;8493313;27;20043;-74
2022/04/21 10:35:58;;;;;;;48.08;26.55;;;;;;;8.97;89.00;99014.53;8530015;27;20042;-74
2022/04/21 10:40:14;;;;;;;46.42;25.58;;;;;;;8.92;88.40;99022.72;8529771;27;20046;-74
2022/04/21 10:44:26;;;;;;;51.08;28.20;;;;;;;8.95;89.69;99011.31;8479442;27;20081;-74
2022/04/21 10:48:41;;;;;;;51.40;28.77;;;;;;;9.12;89.35;99006.94;8529888;27;20039;-74
2022/04/21 10:57:16;;;;;;;47.60;26.52;;;;;;;9.26;87.75;99012.28;8528947;27;20071;-74
2022/04/21 11:01:31;;;;;;;48.30;28.08;;;;;;;9.27;87.86;99011.19;8529204;27;20561;-75
2022/04/21 11:05:36;;;;;;;60.78;34.20;;;;;;;9.30;87.52;99007.91;8528984;27;20099;-74
2022/04/21 11:09:42;;;;;;;56.80;31.55;;;;;;;9.22;87.70;99016.69;8528974;27;20050;-74
2022/04/21 11:13:53;;;;;;;48.72;26.55;;;;;;;9.16;87.68;99012.50;8528895;27;20074;-74
2022/04/21 11:18:07;;;;;;;55.00;28.20;;;;;;;9.08;88.52;99008.63;8525840;27;20050;-73
2022/04/21 11:22:10;;;;;;;49.25;26.63;;;;;;;9.16;88.56;99009.81;8528708;27;20047;-74
2022/04/21 11:26:11;;;;;;;47.97;27.08;;;;;;;9.45;88.29;99012.97;8528664;27;20560;-74
2022/04/21 11:30:14;;;;;;;52.72;27.23;;;;;;;9.69;86.95;99005.41;8528602;27;20563;-73
2022/04/21 11:34:25;;;;;;;48.08;24.25;;;;;;;10.12;81.93;99003.03;8528501;27;20051;-74
2022/04/21 11:38:27;;;;;;;46.10;24.35;;;;;;;10.13;81.09;98993.03;8528414;27;20051;-73
2022/04/21 11:42:28;;;;;;;47.22;23.55;;;;;;;10.42;80.14;98985.28;8528305;27;20074;-74
2022/04/21 11:46:30;;;;;;;36.90;22.45;;;;;;;10.53;79.05;98985.78;8528492;27;20050;-74
2022/04/21 11:50:31;;;;;;;36.88;21.17;;;;;;;10.68;78.83;98987.31;8509830;27;20075;-74
2022/04/21 11:54:32;;;;;;;38.72;22.45;;;;;;;10.79;78.54;98973.19;8517751;27;20043;-74
2022/04/21 11:58:34;;;;;;;38.40;21.58;;;;;;;10.99;78.67;98982.66;8457956;28;20055;-74
2022/04/21 12:06:57;;;;;;;42.45;23.80;;;;;;;10.83;79.52;98984.19;8388466;28;20059;-74
2022/04/21 12:10:58;;;;;;;39.45;21.80;;;;;;;10.78;79.89;98971.63;8392881;28;20086;-74
2022/04/21 12:15:00;;;;;;;30.33;18.90;;;;;;;10.83;79.48;98973.38;8394924;28;20151;-74
2022/04/21 12:19:13;;;;;;;28.63;18.02;;;;;;;10.97;78.55;98979.44;8377890;28;20057;-74
2022/04/21 12:23:25;;;;;;;30.77;19.60;;;;;;;11.34;77.76;98968.06;8394395;28;20131;-74
2022/04/21 12:27:34;;;;;;;28.83;17.52;;;;;;;11.21;76.34;98974.41;8394464;28;20040;-74
2022/04/21 12:31:52;;;;;;;30.35;18.23;;;;;;;11.25;76.63;98977.28;8415055;27;20051;-74
2022/04/21 12:35:53;;;;;;;28.80;18.55;;;;;;;11.25;76.58;98975.38;8499811;27;20047;-74
2022/04/21 12:39:55;;;;;;;35.33;20.40;;;;;;;11.11;76.24;98977.41;8499326;27;20100;-74
2022/04/21 12:43:57;;;;;;;30.88;18.73;;;;;;;11.10;75.95;98973.13;8499645;27;20047;-74
2022/04/21 12:47:58;;;;;;;28.67;16.73;;;;;;;11.11;76.29;98974.69;8499425;27;20511;-74
2022/04/21 12:52:00;;;;;;;26.23;16.42;;;;;;;11.24;75.87;98970.28;8498570;27;20108;-74
2022/04/21 12:56:32;;;;;;;28.73;17.30;;;;;;;11.12;76.49;98970.91;8509916;27;20039;-74
2022/04/21 13:00:35;;;;;;;24.42;15.80;;;;;;;11.02;76.82;98971.19;8461261;27;20506;-74
2022/04/21 13:04:36;;;;;;;25.60;16.02;;;;;;;10.99;77.30;98971.84;8445471;27;20054;-74
2022/04/21 13:08:36;;;;;;;24.00;15.38;;;;;;;10.85;77.40;98976.53;8498806;27;20110;-74
2022/04/21 13:12:37;;;;;;;24.52;15.85;;;;;;;10.83;77.78;98973.38;8498617;27;20412;-74
2022/04/21 13:16:38;;;;;;;22.90;15.32;;;;;;;10.75;77.75;98977.63;8462130;27;20725;-74
2022/04/21 13:24:59;;;;;;;23.85;13.88;;;;;;;10.82;77.32;98974.47;8498093;27;20043;-74
2022/04/21 13:29:00;;;;;;;22.73;14.85;;;;;;;11.04;77.31;98973.59;8497954;27;20142;-74
2022/04/21 13:37:20;;;;;;;25.58;15.77;;;;;;;11.32;76.60;98964.88;8497829;27;20051;-74
2022/04/21 13:41:22;;;;;;;26.30;17.15;;;;;;;11.37;76.56;98967.44;8497491;27;20146;-74
2022/04/21 13:45:23;;;;;;;27.98;17.08;;;;;;;11.54;75.95;98965.84;8479492;27;20047;-74
2022/04/21 13:49:24;;;;;;;23.90;14.88;;;;;;;11.48;75.80;98961.69;8497373;27;20135;-74
2022/04/21 13:53:25;;;;;;;23.20;14.75;;;;;;;11.27;75.92;98978.56;8497114;27;20051;-73
2022/04/21 13:57:26;;;;;;;25.67;16.27;;;;;;;11.11;76.28;98966.59;8531354;27;20053;-74
2022/04/21 14:01:28;;;;;;;24.98;15.50;;;;;;;11.02;76.64;98960.38;8531103;27;20047;-74
2022/04/21 14:05:29;;;;;;;29.67;16.60;;;;;;;11.04;77.00;98974.38;8531249;27;20532;-74
2022/04/21 14:09:30;;;;;;;22.23;14.23;;;;;;;10.90;77.33;98979.09;8531256;27;20051;-74
2022/04/21 14:13:31;;;;;;;21.83;14.05;;;;;;;10.92;77.27;98982.28;8530870;27;20087;-73
2022/04/21 14:17:32;;;;;;;26.70;15.73;;;;;;;10.93;77.26;98978.50;8530970;27;20054;-74
2022/04/21 14:21:36;;;;;;;23.08;14.68;;;;;;;10.97;77.18;98979.44;8512136;27;20094;-74
2022/04/21 14:25:37;;;;;;;23.73;14.70;;;;;;;10.93;76.99;98984.69;8493958;27;20054;-74
2022/04/21 14:29:39;;;;;;;27.55;16.63;;;;;;;10.70;77.58;98982.38;8511841;27;20125;-74
2022/04/21 14:33:41;;;;;;;193.30;81.03;;;;;;;10.61;78.00;98976.16;8529596;27;20054;-74
2022/04/21 14:46:21;;;;;;;27.27;16.10;;;;;;;10.44;79.70;98976.88;8529975;27;20107;-74
2022/04/21 14:50:24;;;;;;;31.60;17.52;;;;;;;10.36;80.44;98981.13;8494335;27;20047;-74
2022/04/21 14:54:26;;;;;;;35.17;17.90;;;;;;;10.33;80.68;98981.75;8443205;27;20066;-74
2022/04/21 14:58:27;;;;;;;30.02;18.13;;;;;;;10.38;80.50;98978.91;8529682;27;20515;-74
2022/04/21 15:02:28;;;;;;;61.65;30.52;;;;;;;10.36;80.87;98975.75;8529603;27;20053;-74
2022/04/21 15:06:29;;;;;;;58.15;32.45;;;;;;;10.43;80.82;98970.66;8529212;27;20042;-74
2022/04/21 15:10:30;;;;;;;31.55;17.92;;;;;;;10.62;80.69;98977.75;8475615;27;20488;-74
2022/04/21 15:14:32;;;;;;;37.08;20.13;;;;;;;10.83;80.59;98967.97;8529330;27;20046;-74
2022/04/21 15:18:33;;;;;;;43.60;24.10;;;;;;;10.99;79.94;98966.44;8528821;27;20053;-74
2022/04/21 15:22:34;;;;;;;38.83;21.50;;;;;;;11.32;79.07;98967.59;8528595;27;20062;-74
2022/04/21 15:26:35;;;;;;;36.50;19.85;;;;;;;11.74;77.81;98970.66;8527334;27;20046;-74
2022/04/21 15:30:38;;;;;;;36.55;20.17;;;;;;;12.37;75.51;98971.81;8501619;27;20489;-73
2022/04/21 15:34:39;;;;;;;33.15;19.67;;;;;;;12.99;73.62;98972.84;8528067;27;20062;-73
2022/04/21 15:38:47;;;;;;;37.55;21.17;;;;;;;12.87;73.61;98959.19;8527772;27;20065;-73
2022/04/21 15:42:48;;;;;;;33.63;19.25;;;;;;;12.65;73.75;98968.34;8540261;27;20050;-73
2022/04/21 15:46:49;;;;;;;33.55;18.52;;;;;;;12.48;74.09;98967.63;8574368;27;20053;-73
2022/04/21 15:50:51;;;;;;;34.42;18.02;;;;;;;12.40;74.26;98963.03;8556526;27;20415;-74
2022/04/21 15:59:11;;;;;;;37.92;20.00;;;;;;;12.23;74.37;98967.41;8572702;27;20464;-73
2022/04/21 16:03:13;;;;;;;33.08;18.75;;;;;;;12.02;74.90;98971.09;8574056;27;20057;-74
2022/04/21 16:07:14;;;;;;;34.88;17.70;;;;;;;11.80;75.26;98974.78;8574296;27;20042;-73
2022/04/21 16:11:16;;;;;;;34.70;18.52;;;;;;;11.58;76.13;98977.66;8555603;27;20487;-74
2022/04/21 16:15:17;;;;;;;33.58;18.67;;;;;;;11.37;76.19;98978.25;8574376;27;20096;-73
2022/04/21 16:19:18;;;;;;;30.05;17.17;;;;;;;11.36;75.86;98965.06;8537182;27;20111;-73
2022/04/21 16:23:19;;;;;;;35.05;18.25;;;;;;;11.22;76.20;98973.28;8534529;27;20096;-74
2022/04/21 16:27:20;;;;;;;33.53;19.67;;;;;;;11.19;76.46;98976.66;8517344;27;20434;-73
2022/04/21 16:31:21;;;;;;;33.47;19.20;;;;;;;11.14;77.26;98979.50;8513135;27;20096;-74
2022/04/21 16:35:22;;;;;;;33.40;19.30;;;;;;;10.99;78.04;98971.84;8512491;27;20050;-73
2022/04/21 16:39:23;;;;;;;38.55;19.67;;;;;;;10.92;78.36;98972.28;8529139;27;20045;-73
2022/04/21 16:43:25;;;;;;;37.03;20.77;;;;;;;10.87;78.37;98975.13;8539574;27;20641;-73
2022/04/21 16:47:26;;;;;;;43.17;21.73;;;;;;;10.80;78.49;98976.69;8539314;27;20034;-73
2022/04/21 16:51:29;;;;;;;44.50;25.42;;;;;;;10.72;78.95;98972.06;8534614;27;20051;-74
2022/04/21 16:55:30;;;;;;;42.03;22.20;;;;;;;10.71;79.19;98970.47;8534059;27;20042;-74
2022/04/21 16:59:31;;;;;;;38.40;21.63;;;;;;;10.61;79.35;98971.56;8531703;27;20039;-74
2022/04/21 17:03:32;;;;;;;36.78;20.25;;;;;;;10.54;79.72;98966.59;8542885;27;20163;-74
2022/04/21 17:07:35;;;;;;;39.13;21.75;;;;;;;10.44;80.35;98976.88;8483967;27;20058;-74
2022/04/21 17:11:35;;;;;;;34.90;18.88;;;;;;;10.25;81.19;98979.81;8496186;27;20042;-73
2022/04/21 17:15:37;;;;;;;39.88;19.50;;;;;;;10.15;81.58;98980.03;8478827;27;20047;-74
2022/04/21 17:19:37;;;;;;;37.35;19.80;;;;;;;10.13;81.96;98971.44;8490139;27;20039;-74
2022/04/21 17:23:39;;;;;;;36.17;19.55;;;;;;;10.05;82.49;98974.88;8470494;27;20051;-74
2022/04/21 17:27:40;;;;;;;31.95;17.70;;;;;;;9.93;83.45;98977.34;8529749;27;20062;-74
2022/04/21 17:31:41;;;;;;;29.58;16.63;;;;;;;9.88;83.74;98980.16;8537375;27;20077;-73
2022/04/21 17:35:42;;;;;;;33.83;17.88;;;;;;;9.83;84.09;98983.00;8532001;27;20043;-74
2022/04/21 17:39:44;;;;;;;31.70;18.08;;;;;;;9.72;84.77;98983.22;8531707;27;20428;-74
2022/04/21 17:43:44;;;;;;;36.22;19.85;;;;;;;9.70;84.98;98985.44;8555839;27;20046;-73
2022/04/21 17:47:47;;;;;;;39.90;21.40;;;;;;;9.67;85.54;98986.06;8509371;27;20507;-73
2022/04/21 17:51:48;;;;;;;33.83;18.90;;;;;;;9.63;85.76;98985.03;8494678;27;20046;-73
2022/04/21 17:55:49;;;;;;;31.90;17.77;;;;;;;9.52;86.48;98983.69;8531222;27;20129;-73
2022/04/21 17:59:52;;;;;;;31.85;17.83;;;;;;;9.49;86.76;98983.50;8543433;27;20066;-74
2022/04/21 18:03:53;;;;;;;31.00;18.77;;;;;;;9.42;87.13;98994.69;8530698;27;20070;-73
2022/04/21 18:07:54;;;;;;;32.25;18.02;;;;;;;9.40;87.30;98988.81;8476377;27;20058;-73
2022/04/21 18:11:55;;;;;;;32.10;18.77;;;;;;;9.37;87.63;98994.81;8509358;27;20055;-73
2022/04/21 18:15:56;;;;;;;32.25;18.88;;;;;;;9.34;87.99;98992.72;8519660;27;20518;-73
2022/04/21 18:19:57;;;;;;;29.75;18.35;;;;;;;9.30;88.10;98986.34;8512421;27;20576;-73
2022/04/21 18:24:01;;;;;;;36.63;19.20;;;;;;;9.25;88.46;98983.78;8493434;27;20046;-73
2022/04/21 18:28:02;;;;;;;40.38;21.95;;;;;;;9.21;88.24;98982.75;8512036;27;20126;-73
2022/04/21 18:32:04;;;;;;;45.28;21.38;;;;;;;9.18;88.48;98983.38;8530431;27;20039;-73
2022/04/21 18:36:06;;;;;;;69.82;31.88;;;;;;;9.14;88.85;98982.41;8530533;27;20507;-73
2022/04/21 18:40:07;;;;;;;69.40;32.22;;;;;;;9.09;88.94;98990.59;8529866;27;20428;-73
2022/04/21 18:44:09;;;;;;;72.25;33.88;;;;;;;9.04;89.10;98988.78;8530168;27;20351;-73
2022/04/21 18:48:15;;;;;;;63.47;30.45;;;;;;;8.98;89.82;98991.88;8475308;27;20442;-73
2022/04/21 18:52:19;;;;;;;50.58;24.15;;;;;;;8.89;90.20;98997.97;8471170;27;20050;-73
2022/04/21 18:56:21;;;;;;;55.13;26.13;;;;;;;8.82;90.42;98992.19;8526618;27;20043;-73
2022/04/21 19:00:23;;;;;;;68.25;33.60;;;;;;;8.83;90.40;98988.38;8474766;27;20047;-73
2022/04/21 19:04:24;;;;;;;69.68;34.88;;;;;;;8.83;89.98;98983.00;8514125;27;20710;-73
2022/04/21 19:12:44;;;;;;;243.18;57.80;;;;;;;8.85;90.36;98977.31;8510933;27;20427;-74
2022/04/21 19:16:46;;;;;;;46.50;23.65;;;;;;;8.80;90.42;98977.44;8447738;27;20043;-73
2022/04/21 19:20:47;;;;;;;119.47;36.53;;;;;;;8.79;90.27;98970.44;8450900;27;20105;-73
2022/04/21 19:24:49;;;;;;;113.03;34.38;;;;;;;8.78;90.03;98969.63;8444406;27;20169;-73
2022/04/21 19:28:52;;;;;;;146.57;42.17;;;;;;;8.74;90.00;98979.41;8421502;28;20122;-73
2022/04/21 19:32:54;;;;;;;61.58;25.20;;;;;;;8.69;90.38;98976.84;8435654;28;20606;-73
2022/04/21 19:36:55;;;;;;;57.80;23.88;;;;;;;8.65;90.63;98970.44;8445751;27;20048;-73
2022/04/21 19:40:57;;;;;;;81.10;33.92;;;;;;;8.63;90.71;98972.63;8430224;28;20304;-73
2022/04/21 19:45:18;;;;;;;153.68;45.15;;;;;;;8.59;90.76;98958.19;8446752;28;20273;-73